sensor_id;sensor_type;location;lat;lon;timestamp;temperature;humidity
67358;HTU21D;54240;51.096;5.878;2022-09-28T00:02:13;8.78;118.99
67358;HTU21D;54240;51.096;5.878;2022-09-28T00:04:39;8.77;118.99
67358;HTU21D;54240;51.096;5.878;2022-09-28T00:07:05;8.86;118.99
67358;HTU21D;54240;51.096;5.878;2022-09-28T00:09:31;8.76;118.99
67358;HTU21D;54240;51.096;5.878;2022-09-28T00:11:57;8.80;118.99
67358;HTU21D;54240;51.096;5.878;2022-09-28T00:14:24;8.79;118.99
67358;HTU21D;54240;51.096;5.878;2022-09-28T00:16:51;8.74;118.99
67358;HTU21D;54240;51.096;5.878;2022-09-28T00:19:16;8.70;118.99
67358;HTU21D;54240;51.096;5.878;2022-09-28T00:21:42;8.72;118.99
67358;HTU21D;54240;51.096;5.878;2022-09-28T00:24:13;8.70;118.99
67358;HTU21D;54240;51.096;5.878;2022-09-28T00:29:37;8.60;118.99
67358;HTU21D;54240;51.096;5.878;2022-09-28T00:32:06;8.57;118.99
67358;HTU21D;54240;51.096;5.878;2022-09-28T00:34:40;8.50;118.99
67358;HTU21D;54240;51.096;5.878;2022-09-28T00:37:08;8.53;118.99
67358;HTU21D;54240;51.096;5.878;2022-09-28T00:39:36;8.50;118.99
67358;HTU21D;54240;51.096;5.878;2022-09-28T00:42:11;8.44;118.99
67358;HTU21D;54240;51.096;5.878;2022-09-28T00:44:41;8.44;118.99
67358;HTU21D;54240;51.096;5.878;2022-09-28T00:55:10;8.32;118.99
67358;HTU21D;54240;51.096;5.878;2022-09-28T00:57:41;8.31;118.99
67358;HTU21D;54240;51.096;5.878;2022-09-28T01:00:09;8.28;118.99
67358;HTU21D;54240;51.096;5.878;2022-09-28T01:02:35;8.20;118.99
67358;HTU21D;54240;51.096;5.878;2022-09-28T01:05:04;8.21;118.99
67358;HTU21D;54240;51.096;5.878;2022-09-28T01:07:32;8.22;118.99
67358;HTU21D;54240;51.096;5.878;2022-09-28T01:09:59;8.26;118.99
67358;HTU21D;54240;51.096;5.878;2022-09-28T01:12:25;8.24;118.99
67358;HTU21D;54240;51.096;5.878;2022-09-28T01:14:51;8.20;118.99
67358;HTU21D;54240;51.096;5.878;2022-09-28T01:17:25;8.17;118.99
67358;HTU21D;54240;51.096;5.878;2022-09-28T01:25:41;8.23;118.99
67358;HTU21D;54240;51.096;5.878;2022-09-28T01:28:17;8.20;118.99
67358;HTU21D;54240;51.096;5.878;2022-09-28T01:31:06;8.26;118.99
67358;HTU21D;54240;51.096;5.878;2022-09-28T01:33:38;8.19;118.99
67358;HTU21D;54240;51.096;5.878;2022-09-28T01:36:20;8.32;118.99
67358;HTU21D;54240;51.096;5.878;2022-09-28T01:38:52;8.36;118.99
67358;HTU21D;54240;51.096;5.878;2022-09-28T01:41:21;8.41;118.99
67358;HTU21D;54240;51.096;5.878;2022-09-28T01:43:54;8.36;118.99
67358;HTU21D;54240;51.096;5.878;2022-09-28T01:46:32;8.41;118.99
67358;HTU21D;54240;51.096;5.878;2022-09-28T01:49:27;8.44;118.99
67358;HTU21D;54240;51.096;5.878;2022-09-28T01:52:10;8.57;118.99
67358;HTU21D;54240;51.096;5.878;2022-09-28T01:54:46;8.52;118.99
67358;HTU21D;54240;51.096;5.878;2022-09-28T01:57:29;8.57;118.99
67358;HTU21D;54240;51.096;5.878;2022-09-28T02:00:04;8.66;118.99
67358;HTU21D;54240;51.096;5.878;2022-09-28T02:03:16;8.62;118.99
67358;HTU21D;54240;51.096;5.878;2022-09-28T02:06:01;8.57;118.99
67358;HTU21D;54240;51.096;5.878;2022-09-28T02:08:35;8.71;118.99
67358;HTU21D;54240;51.096;5.878;2022-09-28T02:11:11;8.68;118.99
67358;HTU21D;54240;51.096;5.878;2022-09-28T02:19:12;8.88;118.99
67358;HTU21D;54240;51.096;5.878;2022-09-28T02:27:59;8.79;118.99
67358;HTU21D;54240;51.096;5.878;2022-09-28T02:30:30;8.80;118.99
67358;HTU21D;54240;51.096;5.878;2022-09-28T02:35:44;8.92;118.99
67358;HTU21D;54240;51.096;5.878;2022-09-28T02:38:12;8.89;118.99
67358;HTU21D;54240;51.096;5.878;2022-09-28T02:40:43;8.87;118.99
67358;HTU21D;54240;51.096;5.878;2022-09-28T02:43:16;8.82;118.99
67358;HTU21D;54240;51.096;5.878;2022-09-28T02:49:16;8.79;118.99
67358;HTU21D;54240;51.096;5.878;2022-09-28T02:52:21;8.70;118.99
67358;HTU21D;54240;51.096;5.878;2022-09-28T03:00:17;8.90;118.99
67358;HTU21D;54240;51.096;5.878;2022-09-28T03:08:59;8.80;118.99
67358;HTU21D;54240;51.096;5.878;2022-09-28T03:11:52;8.89;118.99
67358;HTU21D;54240;51.096;5.878;2022-09-28T03:14:20;8.86;118.99
67358;HTU21D;54240;51.096;5.878;2022-09-28T03:16:53;8.80;118.99
67358;HTU21D;54240;51.096;5.878;2022-09-28T03:19:23;8.82;118.99
67358;HTU21D;54240;51.096;5.878;2022-09-28T03:21:51;8.66;118.99
67358;HTU21D;54240;51.096;5.878;2022-09-28T03:24:17;8.76;118.99
67358;HTU21D;54240;51.096;5.878;2022-09-28T03:26:43;8.66;118.99
67358;HTU21D;54240;51.096;5.878;2022-09-28T03:29:10;8.74;118.99
67358;HTU21D;54240;51.096;5.878;2022-09-28T03:31:37;8.77;118.99
67358;HTU21D;54240;51.096;5.878;2022-09-28T03:34:04;8.73;118.99
67358;HTU21D;54240;51.096;5.878;2022-09-28T03:36:30;8.73;118.99
67358;HTU21D;54240;51.096;5.878;2022-09-28T03:38:56;8.80;118.99
67358;HTU21D;54240;51.096;5.878;2022-09-28T03:41:23;8.67;118.99
67358;HTU21D;54240;51.096;5.878;2022-09-28T03:43:49;8.73;118.99
67358;HTU21D;54240;51.096;5.878;2022-09-28T03:46:16;8.68;118.99
67358;HTU21D;54240;51.096;5.878;2022-09-28T03:48:46;8.63;118.99
67358;HTU21D;54240;51.096;5.878;2022-09-28T03:51:12;8.52;118.99
67358;HTU21D;54240;51.096;5.878;2022-09-28T03:53:39;8.44;118.99
67358;HTU21D;54240;51.096;5.878;2022-09-28T03:56:13;8.34;118.99
67358;HTU21D;54240;51.096;5.878;2022-09-28T03:58:40;8.34;118.99
67358;HTU21D;54240;51.096;5.878;2022-09-28T04:01:10;8.31;118.99
67358;HTU21D;54240;51.096;5.878;2022-09-28T04:03:44;8.23;118.99
67358;HTU21D;54240;51.096;5.878;2022-09-28T04:06:11;8.19;118.99
67358;HTU21D;54240;51.096;5.878;2022-09-28T04:08:37;8.16;118.99
67358;HTU21D;54240;51.096;5.878;2022-09-28T04:11:03;8.15;118.99
67358;HTU21D;54240;51.096;5.878;2022-09-28T04:13:29;8.09;118.99
67358;HTU21D;54240;51.096;5.878;2022-09-28T04:15:59;7.92;118.99
67358;HTU21D;54240;51.096;5.878;2022-09-28T04:18:28;8.02;118.99
67358;HTU21D;54240;51.096;5.878;2022-09-28T04:21:14;8.00;118.99
67358;HTU21D;54240;51.096;5.878;2022-09-28T04:23:47;8.00;118.99
67358;HTU21D;54240;51.096;5.878;2022-09-28T04:26:16;7.98;118.99
67358;HTU21D;54240;51.096;5.878;2022-09-28T04:28:43;7.86;118.99
67358;HTU21D;54240;51.096;5.878;2022-09-28T04:31:28;7.93;118.99
67358;HTU21D;54240;51.096;5.878;2022-09-28T04:33:58;7.97;118.99
67358;HTU21D;54240;51.096;5.878;2022-09-28T04:36:24;7.88;118.99
67358;HTU21D;54240;51.096;5.878;2022-09-28T04:38:52;7.97;118.99
67358;HTU21D;54240;51.096;5.878;2022-09-28T04:41:20;7.97;118.99
67358;HTU21D;54240;51.096;5.878;2022-09-28T04:43:49;8.02;118.99
67358;HTU21D;54240;51.096;5.878;2022-09-28T04:46:16;8.07;118.99
67358;HTU21D;54240;51.096;5.878;2022-09-28T04:48:49;8.06;118.99
67358;HTU21D;54240;51.096;5.878;2022-09-28T04:51:34;8.13;118.99
67358;HTU21D;54240;51.096;5.878;2022-09-28T04:54:00;8.13;118.99
67358;HTU21D;54240;51.096;5.878;2022-09-28T04:56:26;8.15;118.99
67358;HTU21D;54240;51.096;5.878;2022-09-28T04:58:51;8.05;118.99
67358;HTU21D;54240;51.096;5.878;2022-09-28T05:01:19;8.05;118.99
67358;HTU21D;54240;51.096;5.878;2022-09-28T05:04:16;8.11;118.99
67358;HTU21D;54240;51.096;5.878;2022-09-28T05:07:00;8.17;118.99
67358;HTU21D;54240;51.096;5.878;2022-09-28T05:09:26;8.13;118.99
67358;HTU21D;54240;51.096;5.878;2022-09-28T05:11:52;8.09;118.99
67358;HTU21D;54240;51.096;5.878;2022-09-28T05:14:20;8.17;118.99
67358;HTU21D;54240;51.096;5.878;2022-09-28T05:16:47;8.14;118.99
67358;HTU21D;54240;51.096;5.878;2022-09-28T05:19:19;8.15;118.99
67358;HTU21D;54240;51.096;5.878;2022-09-28T05:21:45;8.07;118.99
67358;HTU21D;54240;51.096;5.878;2022-09-28T05:24:12;7.97;118.99
67358;HTU21D;54240;51.096;5.878;2022-09-28T05:26:38;7.85;118.99
67358;HTU21D;54240;51.096;5.878;2022-09-28T05:29:06;7.86;118.99
67358;HTU21D;54240;51.096;5.878;2022-09-28T05:31:38;7.83;118.99
67358;HTU21D;54240;51.096;5.878;2022-09-28T05:34:30;7.78;118.99
67358;HTU21D;54240;51.096;5.878;2022-09-28T05:36:56;7.79;118.99
67358;HTU21D;54240;51.096;5.878;2022-09-28T05:39:22;7.71;118.99
67358;HTU21D;54240;51.096;5.878;2022-09-28T05:41:48;7.70;118.99
67358;HTU21D;54240;51.096;5.878;2022-09-28T05:44:14;7.71;118.99
67358;HTU21D;54240;51.096;5.878;2022-09-28T05:46:40;7.75;118.99
67358;HTU21D;54240;51.096;5.878;2022-09-28T05:49:08;7.81;118.99
67358;HTU21D;54240;51.096;5.878;2022-09-28T05:51:35;7.82;118.99
67358;HTU21D;54240;51.096;5.878;2022-09-28T05:54:01;7.84;118.99
67358;HTU21D;54240;51.096;5.878;2022-09-28T05:56:29;7.82;118.99
67358;HTU21D;54240;51.096;5.878;2022-09-28T05:58:56;7.92;118.99
67358;HTU21D;54240;51.096;5.878;2022-09-28T06:01:26;8.01;118.99
67358;HTU21D;54240;51.096;5.878;2022-09-28T06:03:53;8.09;118.99
67358;HTU21D;54240;51.096;5.878;2022-09-28T06:06:19;8.12;118.99
67358;HTU21D;54240;51.096;5.878;2022-09-28T06:08:46;8.20;118.99
67358;HTU21D;54240;51.096;5.878;2022-09-28T06:11:31;8.26;118.99
67358;HTU21D;54240;51.096;5.878;2022-09-28T06:13:59;8.31;118.99
67358;HTU21D;54240;51.096;5.878;2022-09-28T06:16:28;8.41;118.99
67358;HTU21D;54240;51.096;5.878;2022-09-28T06:18:54;8.51;118.99
67358;HTU21D;54240;51.096;5.878;2022-09-28T06:21:32;8.49;118.99
67358;HTU21D;54240;51.096;5.878;2022-09-28T06:23:58;8.52;118.99
67358;HTU21D;54240;51.096;5.878;2022-09-28T06:26:24;8.58;118.99
67358;HTU21D;54240;51.096;5.878;2022-09-28T06:28:50;8.53;118.99
67358;HTU21D;54240;51.096;5.878;2022-09-28T06:31:16;8.66;118.99
67358;HTU21D;54240;51.096;5.878;2022-09-28T06:33:47;8.68;118.99
67358;HTU21D;54240;51.096;5.878;2022-09-28T06:36:13;8.73;118.99
67358;HTU21D;54240;51.096;5.878;2022-09-28T06:38:38;8.67;118.99
67358;HTU21D;54240;51.096;5.878;2022-09-28T06:41:05;8.76;118.99
67358;HTU21D;54240;51.096;5.878;2022-09-28T06:43:31;8.71;118.99
67358;HTU21D;54240;51.096;5.878;2022-09-28T06:46:11;8.88;118.99
67358;HTU21D;54240;51.096;5.878;2022-09-28T06:48:54;8.97;118.99
67358;HTU21D;54240;51.096;5.878;2022-09-28T06:51:40;9.07;118.99
67358;HTU21D;54240;51.096;5.878;2022-09-28T06:54:17;9.11;118.99
67358;HTU21D;54240;51.096;5.878;2022-09-28T06:57:03;9.23;118.99
67358;HTU21D;54240;51.096;5.878;2022-09-28T06:59:29;9.20;118.99
67358;HTU21D;54240;51.096;5.878;2022-09-28T07:01:57;9.19;118.99
67358;HTU21D;54240;51.096;5.878;2022-09-28T07:04:44;9.30;118.99
67358;HTU21D;54240;51.096;5.878;2022-09-28T07:07:32;9.36;118.99
67358;HTU21D;54240;51.096;5.878;2022-09-28T07:10:10;9.35;118.99
67358;HTU21D;54240;51.096;5.878;2022-09-28T07:13:03;9.53;118.99
67358;HTU21D;54240;51.096;5.878;2022-09-28T07:15:42;9.56;118.99
67358;HTU21D;54240;51.096;5.878;2022-09-28T07:18:11;9.63;118.99
67358;HTU21D;54240;51.096;5.878;2022-09-28T07:20:40;9.65;118.99
67358;HTU21D;54240;51.096;5.878;2022-09-28T07:23:06;9.66;118.99
67358;HTU21D;54240;51.096;5.878;2022-09-28T07:25:52;9.71;118.99
67358;HTU21D;54240;51.096;5.878;2022-09-28T07:28:41;9.78;118.99
67358;HTU21D;54240;51.096;5.878;2022-09-28T07:31:29;9.64;118.99
67358;HTU21D;54240;51.096;5.878;2022-09-28T07:34:10;9.62;118.99
67358;HTU21D;54240;51.096;5.878;2022-09-28T07:36:59;9.95;118.99
67358;HTU21D;54240;51.096;5.878;2022-09-28T07:39:25;10.20;118.99
67358;HTU21D;54240;51.096;5.878;2022-09-28T07:41:50;10.64;118.99
67358;HTU21D;54240;51.096;5.878;2022-09-28T07:44:17;10.97;118.99
67358;HTU21D;54240;51.096;5.878;2022-09-28T07:46:45;11.56;118.99
67358;HTU21D;54240;51.096;5.878;2022-09-28T07:49:34;11.98;118.99
67358;HTU21D;54240;51.096;5.878;2022-09-28T07:52:23;12.04;118.99
67358;HTU21D;54240;51.096;5.878;2022-09-28T07:55:13;11.64;118.99
67358;HTU21D;54240;51.096;5.878;2022-09-28T07:58:01;11.60;118.99
67358;HTU21D;54240;51.096;5.878;2022-09-28T08:00:50;11.71;118.99
67358;HTU21D;54240;51.096;5.878;2022-09-28T08:03:18;11.70;118.99
67358;HTU21D;54240;51.096;5.878;2022-09-28T08:05:44;11.82;118.99
67358;HTU21D;54240;51.096;5.878;2022-09-28T08:08:12;12.02;118.99
67358;HTU21D;54240;51.096;5.878;2022-09-28T08:10:41;12.11;118.99
67358;HTU21D;54240;51.096;5.878;2022-09-28T08:13:30;11.98;118.99
67358;HTU21D;54240;51.096;5.878;2022-09-28T08:16:26;11.71;118.99
67358;HTU21D;54240;51.096;5.878;2022-09-28T08:19:03;11.46;118.99
67358;HTU21D;54240;51.096;5.878;2022-09-28T08:21:29;11.88;118.99
67358;HTU21D;54240;51.096;5.878;2022-09-28T08:24:15;12.32;118.99
67358;HTU21D;54240;51.096;5.878;2022-09-28T08:26:42;12.56;118.99
67358;HTU21D;54240;51.096;5.878;2022-09-28T08:29:10;12.91;118.99
67358;HTU21D;54240;51.096;5.878;2022-09-28T08:31:53;13.10;118.99
67358;HTU21D;54240;51.096;5.878;2022-09-28T08:34:30;13.52;118.99
67358;HTU21D;54240;51.096;5.878;2022-09-28T08:37:15;13.80;118.99
67358;HTU21D;54240;51.096;5.878;2022-09-28T08:39:59;14.07;118.99
67358;HTU21D;54240;51.096;5.878;2022-09-28T08:42:56;13.59;118.99
67358;HTU21D;54240;51.096;5.878;2022-09-28T08:45:41;13.98;118.99
67358;HTU21D;54240;51.096;5.878;2022-09-28T08:48:34;13.92;102.42
67358;HTU21D;54240;51.096;5.878;2022-09-28T08:54:42;14.24;114.15
67358;HTU21D;54240;51.096;5.878;2022-09-28T08:57:28;14.86;92.55
67358;HTU21D;54240;51.096;5.878;2022-09-28T08:59:59;14.91;82.82
67358;HTU21D;54240;51.096;5.878;2022-09-28T09:02:32;14.93;84.10
67358;HTU21D;54240;51.096;5.878;2022-09-28T09:05:23;15.15;91.09
67358;HTU21D;54240;51.096;5.878;2022-09-28T09:23:19;14.87;93.20
67358;HTU21D;54240;51.096;5.878;2022-09-28T09:26:10;15.41;80.12
67358;HTU21D;54240;51.096;5.878;2022-09-28T09:34:40;14.99;62.03
67358;HTU21D;54240;51.096;5.878;2022-09-28T09:47:02;15.70;48.02
67358;HTU21D;54240;51.096;5.878;2022-09-28T09:52:20;15.19;56.60
67358;HTU21D;54240;51.096;5.878;2022-09-28T09:55:02;14.84;64.19
67358;HTU21D;54240;51.096;5.878;2022-09-28T09:58:29;15.57;68.55
67358;HTU21D;54240;51.096;5.878;2022-09-28T10:01:20;16.55;67.04
67358;HTU21D;54240;51.096;5.878;2022-09-28T10:04:25;17.44;38.17
67358;HTU21D;54240;51.096;5.878;2022-09-28T10:07:00;17.87;37.74
67358;HTU21D;54240;51.096;5.878;2022-09-28T10:09:38;18.40;5.74
67358;HTU21D;54240;51.096;5.878;2022-09-28T10:12:32;18.37;2.10
67358;HTU21D;54240;51.096;5.878;2022-09-28T10:15:02;17.76;-4.70
67358;HTU21D;54240;51.096;5.878;2022-09-28T10:17:36;17.03;-6.00
67358;HTU21D;54240;51.096;5.878;2022-09-28T10:20:21;16.35;-2.86
67358;HTU21D;54240;51.096;5.878;2022-09-28T10:22:58;16.48;-0.38
67358;HTU21D;54240;51.096;5.878;2022-09-28T10:25:29;16.34;-5.62
67358;HTU21D;54240;51.096;5.878;2022-09-28T10:27:58;16.25;2.15
67358;HTU21D;54240;51.096;5.878;2022-09-28T10:30:26;16.39;1.25
67358;HTU21D;54240;51.096;5.878;2022-09-28T10:32:54;16.43;-1.34
67358;HTU21D;54240;51.096;5.878;2022-09-28T10:35:26;16.72;3.40
67358;HTU21D;54240;51.096;5.878;2022-09-28T10:38:00;16.61;-2.82
67358;HTU21D;54240;51.096;5.878;2022-09-28T10:40:49;16.28;-6.00
67358;HTU21D;54240;51.096;5.878;2022-09-28T10:46:21;16.33;-5.23
67358;HTU21D;54240;51.096;5.878;2022-09-28T10:51:50;16.32;-4.02
67358;HTU21D;54240;51.096;5.878;2022-09-28T10:54:33;16.21;-6.00
67358;HTU21D;54240;51.096;5.878;2022-09-28T10:56:59;16.02;-6.00
67358;HTU21D;54240;51.096;5.878;2022-09-28T10:59:46;15.77;-6.00
67358;HTU21D;54240;51.096;5.878;2022-09-28T11:02:38;15.71;-6.00
67358;HTU21D;54240;51.096;5.878;2022-09-28T11:05:21;15.29;-5.16
67358;HTU21D;54240;51.096;5.878;2022-09-28T11:07:48;15.10;2.35
67358;HTU21D;54240;51.096;5.878;2022-09-28T11:10:23;14.83;5.30
67358;HTU21D;54240;51.096;5.878;2022-09-28T11:12:54;14.78;3.24
67358;HTU21D;54240;51.096;5.878;2022-09-28T11:15:27;15.08;8.56
67358;HTU21D;54240;51.096;5.878;2022-09-28T11:17:54;15.07;5.76
67358;HTU21D;54240;51.096;5.878;2022-09-28T11:22:59;14.89;2.50
67358;HTU21D;54240;51.096;5.878;2022-09-28T11:25:31;15.14;1.77
67358;HTU21D;54240;51.096;5.878;2022-09-28T11:28:01;15.16;1.35
67358;HTU21D;54240;51.096;5.878;2022-09-28T11:30:52;16.00;6.03
67358;HTU21D;54240;51.096;5.878;2022-09-28T11:33:46;17.05;-6.00
67358;HTU21D;54240;51.096;5.878;2022-09-28T11:39:11;16.93;-6.00
67358;HTU21D;54240;51.096;5.878;2022-09-28T11:42:00;16.64;-6.00
67358;HTU21D;54240;51.096;5.878;2022-09-28T11:47:41;15.84;-6.00
67358;HTU21D;54240;51.096;5.878;2022-09-28T11:53:41;15.60;-6.00
67358;HTU21D;54240;51.096;5.878;2022-09-28T11:59:29;17.30;-6.00
67358;HTU21D;54240;51.096;5.878;2022-09-28T12:02:03;17.54;-6.00
67358;HTU21D;54240;51.096;5.878;2022-09-28T12:04:51;17.07;-6.00
67358;HTU21D;54240;51.096;5.878;2022-09-28T12:07:33;17.22;-6.00
67358;HTU21D;54240;51.096;5.878;2022-09-28T12:12:43;17.23;-6.00
67358;HTU21D;54240;51.096;5.878;2022-09-28T12:15:18;17.45;-6.00
67358;HTU21D;54240;51.096;5.878;2022-09-28T12:17:51;17.38;-6.00
67358;HTU21D;54240;51.096;5.878;2022-09-28T12:20:24;16.92;-6.00
67358;HTU21D;54240;51.096;5.878;2022-09-28T12:25:33;16.21;-6.00
67358;HTU21D;54240;51.096;5.878;2022-09-28T12:28:05;15.96;-6.00
67358;HTU21D;54240;51.096;5.878;2022-09-28T12:30:36;15.54;-6.00
67358;HTU21D;54240;51.096;5.878;2022-09-28T12:33:13;15.19;-6.00
67358;HTU21D;54240;51.096;5.878;2022-09-28T12:41:44;15.55;6.11
67358;HTU21D;54240;51.096;5.878;2022-09-28T12:47:24;16.18;-6.00
67358;HTU21D;54240;51.096;5.878;2022-09-28T12:50:10;16.29;-6.00
67358;HTU21D;54240;51.096;5.878;2022-09-28T12:55:45;16.33;-6.00
67358;HTU21D;54240;51.096;5.878;2022-09-28T12:58:31;16.32;-6.00
67358;HTU21D;54240;51.096;5.878;2022-09-28T13:04:24;16.57;-6.00
67358;HTU21D;54240;51.096;5.878;2022-09-28T13:07:27;16.61;-6.00
67358;HTU21D;54240;51.096;5.878;2022-09-28T13:10:30;16.93;-6.00
67358;HTU21D;54240;51.096;5.878;2022-09-28T13:13:05;17.34;-6.00
67358;HTU21D;54240;51.096;5.878;2022-09-28T13:18:44;17.33;-6.00
67358;HTU21D;54240;51.096;5.878;2022-09-28T13:21:19;17.14;-6.00
67358;HTU21D;54240;51.096;5.878;2022-09-28T13:23:50;16.77;-6.00
67358;HTU21D;54240;51.096;5.878;2022-09-28T13:26:27;16.45;-6.00
67358;HTU21D;54240;51.096;5.878;2022-09-28T13:29:00;16.14;-6.00
67358;HTU21D;54240;51.096;5.878;2022-09-28T13:31:31;15.92;-6.00
67358;HTU21D;54240;51.096;5.878;2022-09-28T13:34:01;15.68;-6.00
67358;HTU21D;54240;51.096;5.878;2022-09-28T13:38:55;15.09;-6.00
67358;HTU21D;54240;51.096;5.878;2022-09-28T13:41:31;14.71;-4.04
67358;HTU21D;54240;51.096;5.878;2022-09-28T14:01:05;13.66;37.79
67358;HTU21D;54240;51.096;5.878;2022-09-28T14:06:26;13.48;80.78
67358;HTU21D;54240;51.096;5.878;2022-09-28T14:16:40;13.10;118.99
67358;HTU21D;54240;51.096;5.878;2022-09-28T14:27:50;13.96;113.52
67358;HTU21D;54240;51.096;5.878;2022-09-28T14:30:24;14.29;103.68
67358;HTU21D;54240;51.096;5.878;2022-09-28T14:32:56;14.39;83.96
67358;HTU21D;54240;51.096;5.878;2022-09-28T14:35:30;14.57;78.11
67358;HTU21D;54240;51.096;5.878;2022-09-28T14:38:10;14.77;76.65
67358;HTU21D;54240;51.096;5.878;2022-09-28T14:41:06;15.14;70.36
67358;HTU21D;54240;51.096;5.878;2022-09-28T14:51:44;15.44;43.11
67358;HTU21D;54240;51.096;5.878;2022-09-28T14:54:51;15.41;44.25
67358;HTU21D;54240;51.096;5.878;2022-09-28T14:57:22;15.14;48.18
67358;HTU21D;54240;51.096;5.878;2022-09-28T14:59:48;14.89;52.57
67358;HTU21D;54240;51.096;5.878;2022-09-28T15:02:30;14.63;58.44
67358;HTU21D;54240;51.096;5.878;2022-09-28T15:05:34;14.44;65.27
67358;HTU21D;54240;51.096;5.878;2022-09-28T15:07:53;14.18;86.20
67358;HTU21D;54240;51.096;5.878;2022-09-28T15:10:32;13.79;101.75
67358;HTU21D;54240;51.096;5.878;2022-09-28T15:13:26;13.64;118.99
67358;HTU21D;54240;51.096;5.878;2022-09-28T15:16:07;13.50;118.99
67358;HTU21D;54240;51.096;5.878;2022-09-28T15:21:12;13.56;118.99
67358;HTU21D;54240;51.096;5.878;2022-09-28T15:23:41;13.82;118.99
67358;HTU21D;54240;51.096;5.878;2022-09-28T15:26:29;14.07;118.99
67358;HTU21D;54240;51.096;5.878;2022-09-28T15:28:56;14.17;118.99
67358;HTU21D;54240;51.096;5.878;2022-09-28T15:31:25;14.21;118.99
67358;HTU21D;54240;51.096;5.878;2022-09-28T15:33:53;14.30;118.99
67358;HTU21D;54240;51.096;5.878;2022-09-28T15:36:40;14.21;118.99
67358;HTU21D;54240;51.096;5.878;2022-09-28T15:39:19;14.24;118.99
67358;HTU21D;54240;51.096;5.878;2022-09-28T15:41:49;14.27;118.99
67358;HTU21D;54240;51.096;5.878;2022-09-28T15:44:27;14.28;118.99
67358;HTU21D;54240;51.096;5.878;2022-09-28T15:47:23;14.35;118.99
67358;HTU21D;54240;51.096;5.878;2022-09-28T15:49:59;14.36;118.99
67358;HTU21D;54240;51.096;5.878;2022-09-28T15:55:24;14.53;118.99
67358;HTU21D;54240;51.096;5.878;2022-09-28T15:57:49;14.41;112.65
67358;HTU21D;54240;51.096;5.878;2022-09-28T16:00:27;14.43;115.51
67358;HTU21D;54240;51.096;5.878;2022-09-28T16:05:45;14.40;114.60
67358;HTU21D;54240;51.096;5.878;2022-09-28T16:08:19;14.30;112.77
67358;HTU21D;54240;51.096;5.878;2022-09-28T16:11:18;14.15;117.29
67358;HTU21D;54240;51.096;5.878;2022-09-28T16:16:46;14.05;118.99
67358;HTU21D;54240;51.096;5.878;2022-09-28T16:19:24;13.97;118.99
67358;HTU21D;54240;51.096;5.878;2022-09-28T16:21:54;13.92;118.99
67358;HTU21D;54240;51.096;5.878;2022-09-28T16:24:33;13.85;118.99
67358;HTU21D;54240;51.096;5.878;2022-09-28T16:29:36;13.63;118.99
67358;HTU21D;54240;51.096;5.878;2022-09-28T16:37:40;13.51;118.99
67358;HTU21D;54240;51.096;5.878;2022-09-28T16:40:10;13.52;118.99
67358;HTU21D;54240;51.096;5.878;2022-09-28T16:42:38;13.56;118.99
67358;HTU21D;54240;51.096;5.878;2022-09-28T16:45:06;13.60;118.99
67358;HTU21D;54240;51.096;5.878;2022-09-28T16:47:37;13.58;118.99
67358;HTU21D;54240;51.096;5.878;2022-09-28T16:50:04;13.52;118.99
67358;HTU21D;54240;51.096;5.878;2022-09-28T16:52:31;13.47;118.99
67358;HTU21D;54240;51.096;5.878;2022-09-28T16:55:16;13.43;118.99
67358;HTU21D;54240;51.096;5.878;2022-09-28T16:57:45;13.38;118.99
67358;HTU21D;54240;51.096;5.878;2022-09-28T17:00:19;13.33;118.99
67358;HTU21D;54240;51.096;5.878;2022-09-28T17:02:51;13.26;118.99
67358;HTU21D;54240;51.096;5.878;2022-09-28T17:05:19;13.24;118.99
67358;HTU21D;54240;51.096;5.878;2022-09-28T17:07:58;13.23;118.99
67358;HTU21D;54240;51.096;5.878;2022-09-28T17:10:33;13.20;118.99
67358;HTU21D;54240;51.096;5.878;2022-09-28T17:13:00;13.16;118.99
67358;HTU21D;54240;51.096;5.878;2022-09-28T17:15:26;13.14;118.99
67358;HTU21D;54240;51.096;5.878;2022-09-28T17:17:52;13.05;118.99
67358;HTU21D;54240;51.096;5.878;2022-09-28T17:20:21;12.97;118.99
67358;HTU21D;54240;51.096;5.878;2022-09-28T17:22:49;12.90;118.99
67358;HTU21D;54240;51.096;5.878;2022-09-28T17:25:15;12.78;118.99
67358;HTU21D;54240;51.096;5.878;2022-09-28T17:27:44;12.65;118.99
67358;HTU21D;54240;51.096;5.878;2022-09-28T17:30:12;12.50;118.99
67358;HTU21D;54240;51.096;5.878;2022-09-28T17:32:40;12.36;118.99
67358;HTU21D;54240;51.096;5.878;2022-09-28T17:35:10;12.23;118.99
67358;HTU21D;54240;51.096;5.878;2022-09-28T17:37:36;12.12;118.99
67358;HTU21D;54240;51.096;5.878;2022-09-28T17:40:24;12.02;118.99
67358;HTU21D;54240;51.096;5.878;2022-09-28T17:42:54;11.93;118.99
67358;HTU21D;54240;51.096;5.878;2022-09-28T17:45:22;11.85;118.99
67358;HTU21D;54240;51.096;5.878;2022-09-28T17:47:51;11.78;118.99
67358;HTU21D;54240;51.096;5.878;2022-09-28T17:50:26;11.77;118.99
67358;HTU21D;54240;51.096;5.878;2022-09-28T17:52:53;11.78;118.99
67358;HTU21D;54240;51.096;5.878;2022-09-28T17:55:21;11.76;118.99
67358;HTU21D;54240;51.096;5.878;2022-09-28T17:57:48;11.77;118.99
67358;HTU21D;54240;51.096;5.878;2022-09-28T18:00:14;11.75;118.99
67358;HTU21D;54240;51.096;5.878;2022-09-28T18:02:41;11.72;118.99
67358;HTU21D;54240;51.096;5.878;2022-09-28T18:05:08;11.67;118.99
67358;HTU21D;54240;51.096;5.878;2022-09-28T18:07:37;11.61;118.99
67358;HTU21D;54240;51.096;5.878;2022-09-28T18:10:04;11.54;118.99
67358;HTU21D;54240;51.096;5.878;2022-09-28T18:12:31;11.47;118.99
67358;HTU21D;54240;51.096;5.878;2022-09-28T18:14:57;11.41;118.99
67358;HTU21D;54240;51.096;5.878;2022-09-28T18:17:23;11.37;118.99
67358;HTU21D;54240;51.096;5.878;2022-09-28T18:19:49;11.31;118.99
67358;HTU21D;54240;51.096;5.878;2022-09-28T18:22:15;11.24;118.99
67358;HTU21D;54240;51.096;5.878;2022-09-28T18:24:41;11.19;118.99
67358;HTU21D;54240;51.096;5.878;2022-09-28T18:27:07;11.16;118.99
67358;HTU21D;54240;51.096;5.878;2022-09-28T18:29:33;11.17;118.99
67358;HTU21D;54240;51.096;5.878;2022-09-28T18:32:00;11.17;118.99
67358;HTU21D;54240;51.096;5.878;2022-09-28T18:34:26;11.14;118.99
67358;HTU21D;54240;51.096;5.878;2022-09-28T18:36:51;11.09;118.99
67358;HTU21D;54240;51.096;5.878;2022-09-28T18:39:17;11.01;118.99
67358;HTU21D;54240;51.096;5.878;2022-09-28T18:41:43;10.97;118.99
67358;HTU21D;54240;51.096;5.878;2022-09-28T18:44:09;10.89;118.99
67358;HTU21D;54240;51.096;5.878;2022-09-28T18:46:35;10.85;118.99
67358;HTU21D;54240;51.096;5.878;2022-09-28T18:49:02;10.80;118.99
67358;HTU21D;54240;51.096;5.878;2022-09-28T18:51:29;10.73;118.99
67358;HTU21D;54240;51.096;5.878;2022-09-28T18:53:55;10.67;118.99
67358;HTU21D;54240;51.096;5.878;2022-09-28T18:56:21;10.65;118.99
67358;HTU21D;54240;51.096;5.878;2022-09-28T18:58:47;10.64;118.99
67358;HTU21D;54240;51.096;5.878;2022-09-28T19:01:18;10.63;118.99
67358;HTU21D;54240;51.096;5.878;2022-09-28T19:03:44;10.63;118.99
67358;HTU21D;54240;51.096;5.878;2022-09-28T19:06:13;10.59;118.99
67358;HTU21D;54240;51.096;5.878;2022-09-28T19:08:40;10.56;118.99